createdAt,value
2022-11-14T00:01:51.170Z,100.00
2022-11-14T00:07:14.354Z,100.00
2022-11-14T00:12:36.433Z,100.00
2022-11-14T00:17:58.053Z,100.00
2022-11-14T00:23:22.053Z,100.00
2022-11-14T00:28:43.952Z,100.00
2022-11-14T00:34:05.743Z,100.00
2022-11-14T00:39:30.788Z,100.00
2022-11-14T00:44:52.753Z,100.00
2022-11-14T00:50:14.470Z,100.00
2022-11-14T00:55:37.660Z,100.00
2022-11-14T01:00:59.572Z,100.00
2022-11-14T01:06:21.926Z,100.00
2022-11-14T01:11:45.485Z,100.00
2022-11-14T01:17:07.163Z,100.00
2022-11-14T01:22:30.763Z,100.00
2022-11-14T01:27:54.154Z,100.00
2022-11-14T01:33:15.855Z,100.00
2022-11-14T01:38:37.976Z,100.00
2022-11-14T01:44:01.373Z,100.00
2022-11-14T01:49:26.851Z,100.00
2022-11-14T01:54:52.283Z,100.00
2022-11-14T02:00:16.823Z,100.00
2022-11-14T02:05:39.167Z,100.00
2022-11-14T02:11:00.963Z,100.00
2022-11-14T02:16:24.080Z,100.00
2022-11-14T02:21:47.320Z,100.00
2022-11-14T02:27:10.429Z,100.00
2022-11-14T02:32:45.014Z,100.00
2022-11-14T02:38:15.610Z,100.00
2022-11-14T02:43:37.717Z,100.00
2022-11-14T02:48:59.708Z,100.00
2022-11-14T02:54:23.278Z,100.00
2022-11-14T02:59:44.970Z,100.00
2022-11-14T03:05:07.798Z,100.00
2022-11-14T03:10:31.738Z,100.00
2022-11-14T03:15:53.721Z,100.00
2022-11-14T03:21:18.156Z,100.00
2022-11-14T03:26:41.358Z,100.00
2022-11-14T03:32:02.983Z,100.00
2022-11-14T03:37:24.638Z,100.00
2022-11-14T03:42:47.870Z,100.00
2022-11-14T03:48:09.787Z,100.00
2022-11-14T03:53:31.825Z,100.00
2022-11-14T03:58:55.046Z,100.00
2022-11-14T04:04:16.959Z,100.00
2022-11-14T04:09:39.379Z,100.00
2022-11-14T04:15:02.791Z,100.00
2022-11-14T04:20:24.421Z,100.00
2022-11-14T04:25:47.286Z,100.00
2022-11-14T04:31:10.607Z,100.00
2022-11-14T04:36:32.600Z,100.00
2022-11-14T04:41:54.276Z,100.00
2022-11-14T04:47:17.256Z,100.00
2022-11-14T04:52:39.025Z,100.00
2022-11-14T04:58:00.771Z,100.00
2022-11-14T05:03:23.779Z,100.00
2022-11-14T05:08:45.551Z,100.00
2022-11-14T05:14:07.361Z,100.00
2022-11-14T05:19:30.609Z,100.00
2022-11-14T05:24:52.465Z,100.00
2022-11-14T05:30:14.668Z,100.00
2022-11-14T05:35:37.826Z,100.00
2022-11-14T05:40:59.860Z,100.00
2022-11-14T05:46:21.846Z,100.00
2022-11-14T05:51:44.955Z,100.00
2022-11-14T05:57:06.952Z,100.00
2022-11-14T06:02:28.945Z,100.00
2022-11-14T06:07:58.013Z,100.00
2022-11-14T06:13:19.762Z,100.00
2022-11-14T06:18:42.234Z,100.00
2022-11-14T06:24:06.250Z,100.00
2022-11-14T06:29:34.172Z,100.00
2022-11-14T06:34:58.045Z,100.00
2022-11-14T06:40:21.506Z,100.00
2022-11-14T06:45:43.400Z,100.00
2022-11-14T06:51:06.645Z,100.00
2022-11-14T06:56:29.775Z,100.00
2022-11-14T07:01:51.610Z,100.00
2022-11-14T07:07:13.540Z,100.00
2022-11-14T07:12:36.407Z,100.00
2022-11-14T07:17:59.674Z,100.00
2022-11-14T07:23:22.962Z,100.00
2022-11-14T07:28:52.282Z,100.00
2022-11-14T07:34:14.849Z,100.00
2022-11-14T07:39:36.583Z,100.00
2022-11-14T07:44:59.636Z,100.00
2022-11-14T07:50:21.305Z,100.00
2022-11-14T07:55:43.122Z,100.00
2022-11-14T08:01:07.902Z,100.00
2022-11-14T08:06:30.100Z,100.00
2022-11-14T08:11:52.017Z,100.00
2022-11-14T08:17:15.237Z,100.00
2022-11-14T08:22:36.934Z,100.00
2022-11-14T08:27:58.706Z,100.00
2022-11-14T08:33:22.028Z,100.00
2022-11-14T08:38:43.758Z,100.00
2022-11-14T08:44:05.848Z,100.00
2022-11-14T08:49:29.404Z,100.00
2022-11-14T08:54:51.358Z,100.00
2022-11-14T09:00:13.920Z,100.00
2022-11-14T09:05:37.481Z,100.00
2022-11-14T09:11:05.374Z,100.00
2022-11-14T09:16:27.973Z,100.00
2022-11-14T09:21:51.052Z,100.00
2022-11-14T09:27:12.775Z,100.00
2022-11-14T09:32:34.569Z,100.00
2022-11-14T09:38:05.854Z,100.00
2022-11-14T09:43:42.658Z,100.00
2022-11-14T09:49:04.651Z,100.00
2022-11-14T09:54:30.310Z,100.00
2022-11-14T09:59:52.483Z,100.00
2022-11-14T10:05:40.847Z,100.00
2022-11-14T10:11:08.814Z,100.00
2022-11-14T10:16:41.771Z,100.00
2022-11-14T10:22:17.214Z,100.00
2022-11-14T10:27:51.249Z,100.00
2022-11-14T10:33:31.448Z,100.00
2022-11-14T10:39:01.729Z,100.00
2022-11-14T10:44:30.915Z,100.00
2022-11-14T10:49:57.002Z,100.00
2022-11-14T10:55:31.992Z,100.00
2022-11-14T11:01:36.163Z,100.00
2022-11-14T11:06:59.781Z,100.00
2022-11-14T11:12:24.535Z,100.00
2022-11-14T11:17:57.370Z,100.00
2022-11-14T11:23:23.038Z,100.00
2022-11-14T11:28:44.927Z,100.00
2022-11-14T11:34:10.272Z,100.00
2022-11-14T11:39:36.801Z,100.00
2022-11-14T11:45:04.324Z,100.00
2022-11-14T11:50:27.624Z,100.00
2022-11-14T11:55:52.901Z,100.00
2022-11-14T12:01:15.824Z,100.00
2022-11-14T12:06:46.017Z,100.00
2022-11-14T12:12:16.259Z,100.00
2022-11-14T12:18:04.589Z,100.00
2022-11-14T12:23:58.056Z,100.00
2022-11-14T12:29:42.223Z,100.00
2022-11-14T12:35:08.016Z,100.00
2022-11-14T12:40:34.527Z,100.00
2022-11-14T12:46:02.059Z,100.00
2022-11-14T12:51:52.341Z,91.65
2022-11-14T12:57:44.463Z,68.41
2022-11-14T13:03:27.808Z,66.35
2022-11-14T13:09:36.170Z,60.67
2022-11-14T13:15:49.314Z,57.88
2022-11-14T13:21:44.796Z,56.09
2022-11-14T13:27:45.151Z,57.12
2022-11-14T13:33:09.064Z,62.84
2022-11-14T13:39:06.783Z,72.48
2022-11-14T13:44:39.801Z,76.15
2022-11-14T13:50:06.410Z,81.84
2022-11-14T13:55:38.565Z,83.60
2022-11-14T14:01:14.934Z,80.08
2022-11-14T14:06:52.222Z,75.78
2022-11-14T14:12:37.134Z,71.04
2022-11-14T14:18:09.903Z,70.04
2022-11-14T14:23:43.178Z,71.54
2022-11-14T14:29:15.810Z,77.78
2022-11-14T14:34:37.808Z,79.82
2022-11-14T14:40:02.764Z,88.53
2022-11-14T14:45:26.927Z,92.91
2022-11-14T14:50:50.822Z,100.00
2022-11-14T14:56:21.891Z,100.00
2022-11-14T15:01:44.854Z,100.00
2022-11-14T15:07:06.682Z,100.00
2022-11-14T15:12:31.759Z,100.00
2022-11-14T15:17:56.109Z,100.00
2022-11-14T15:23:20.860Z,100.00
2022-11-14T15:28:44.417Z,100.00
2022-11-14T15:34:22.016Z,100.00
2022-11-14T15:39:44.987Z,100.00
2022-11-14T15:50:36.261Z,100.00
2022-11-14T15:55:58.887Z,100.00
2022-11-14T16:01:26.063Z,100.00
2022-11-14T16:06:50.199Z,100.00
2022-11-14T16:12:12.493Z,100.00
2022-11-14T16:17:38.092Z,100.00
2022-11-14T16:23:01.502Z,100.00
2022-11-14T16:28:23.376Z,100.00
2022-11-14T16:33:45.198Z,100.00
2022-11-14T16:39:11.508Z,100.00
2022-11-14T16:44:40.949Z,100.00
2022-11-14T16:50:05.781Z,100.00
2022-11-14T16:55:29.483Z,100.00
2022-11-14T17:00:51.226Z,100.00
2022-11-14T17:06:13.159Z,100.00
2022-11-14T17:11:36.205Z,100.00
2022-11-14T17:17:04.083Z,100.00
2022-11-14T17:22:26.191Z,100.00
2022-11-14T17:27:49.934Z,100.00
2022-11-14T17:33:12.066Z,100.00
2022-11-14T17:38:34.530Z,100.00
2022-11-14T17:44:01.764Z,100.00
2022-11-14T17:49:23.772Z,100.00
2022-11-14T17:54:45.491Z,100.00
2022-11-14T18:00:10.435Z,100.00
2022-11-14T18:05:32.654Z,100.00
2022-11-14T18:10:55.163Z,100.00
2022-11-14T18:16:20.056Z,100.00
2022-11-14T18:21:43.234Z,100.00
2022-11-14T18:27:05.192Z,100.00
2022-11-14T18:32:28.463Z,100.00
2022-11-14T18:37:50.492Z,100.00
2022-11-14T18:43:12.160Z,100.00
2022-11-14T18:48:35.595Z,100.00
2022-11-14T18:53:59.245Z,100.00
2022-11-14T18:59:21.112Z,100.00
2022-11-14T19:04:44.259Z,100.00
2022-11-14T19:10:07.007Z,100.00
2022-11-14T19:15:28.931Z,100.00
2022-11-14T19:20:59.326Z,100.00
2022-11-14T19:26:21.367Z,100.00
2022-11-14T19:31:44.100Z,100.00
2022-11-14T19:37:07.483Z,100.00
2022-11-14T19:42:29.177Z,100.00
2022-11-14T19:47:51.191Z,100.00
2022-11-14T19:53:14.250Z,100.00
2022-11-14T19:58:37.175Z,100.00
2022-11-14T20:04:01.289Z,100.00
2022-11-14T20:09:24.298Z,100.00
2022-11-14T20:14:46.198Z,100.00
2022-11-14T20:20:09.066Z,100.00
2022-11-14T20:25:32.470Z,100.00
2022-11-14T20:30:55.055Z,100.00
2022-11-14T20:36:19.753Z,100.00
2022-11-14T20:41:43.151Z,100.00
2022-11-14T20:47:09.843Z,100.00
2022-11-14T20:52:33.027Z,100.00
2022-11-14T20:57:56.203Z,100.00
2022-11-14T21:03:18.139Z,100.00
2022-11-14T21:08:40.739Z,100.00
2022-11-14T21:14:04.360Z,100.00
2022-11-14T21:19:25.963Z,100.00
2022-11-14T21:24:47.694Z,100.00
2022-11-14T21:30:11.610Z,100.00
2022-11-14T21:35:35.868Z,100.00
2022-11-14T21:40:57.760Z,100.00
2022-11-14T21:46:21.001Z,100.00
2022-11-14T21:51:42.826Z,100.00
2022-11-14T21:57:09.803Z,100.00
2022-11-14T22:02:50.986Z,100.00
2022-11-14T22:08:13.118Z,100.00
2022-11-14T22:13:35.041Z,100.00
2022-11-14T22:19:04.707Z,100.00
2022-11-14T22:24:27.507Z,100.00
2022-11-14T22:29:49.342Z,100.00
2022-11-14T22:35:12.362Z,100.00
2022-11-14T22:40:34.265Z,100.00
2022-11-14T22:45:57.059Z,100.00
2022-11-14T22:51:21.861Z,100.00
2022-11-14T22:56:44.031Z,100.00
2022-11-14T23:02:05.919Z,100.00
2022-11-14T23:07:29.392Z,100.00
2022-11-14T23:12:51.692Z,100.00
2022-11-14T23:18:13.782Z,100.00
2022-11-14T23:23:37.011Z,100.00
2022-11-14T23:28:59.309Z,100.00
2022-11-14T23:34:21.392Z,100.00
2022-11-14T23:39:44.494Z,100.00
2022-11-14T23:45:07.038Z,100.00
2022-11-14T23:50:29.118Z,100.00
2022-11-14T23:55:56.738Z,100.00
